sensor_id;sensor_type;location;lat;lon;timestamp;P1;durP1;ratioP1;P2;durP2;ratioP2
58071;SDS011;60383;46.626;18.866;2023-10-19T00:00:54;11.23;;;7.63;;
58071;SDS011;60383;46.626;18.866;2023-10-19T00:03:21;13.10;;;7.93;;
58071;SDS011;60383;46.626;18.866;2023-10-19T00:05:48;13.38;;;8.68;;
58071;SDS011;60383;46.626;18.866;2023-10-19T00:08:14;12.65;;;8.60;;
58071;SDS011;60383;46.626;18.866;2023-10-19T00:10:41;11.82;;;8.25;;
58071;SDS011;60383;46.626;18.866;2023-10-19T00:13:08;16.15;;;9.27;;
58071;SDS011;60383;46.626;18.866;2023-10-19T00:15:37;14.68;;;9.00;;
58071;SDS011;60383;46.626;18.866;2023-10-19T00:18:13;12.73;;;8.45;;
58071;SDS011;60383;46.626;18.866;2023-10-19T00:20:42;13.63;;;8.80;;
58071;SDS011;60383;46.626;18.866;2023-10-19T00:23:11;15.20;;;9.75;;
58071;SDS011;60383;46.626;18.866;2023-10-19T00:25:39;12.43;;;9.00;;
58071;SDS011;60383;46.626;18.866;2023-10-19T00:28:08;13.18;;;9.20;;
58071;SDS011;60383;46.626;18.866;2023-10-19T00:30:33;17.13;;;8.45;;
58071;SDS011;60383;46.626;18.866;2023-10-19T00:33:02;13.48;;;9.13;;
58071;SDS011;60383;46.626;18.866;2023-10-19T00:35:41;12.55;;;9.13;;
58071;SDS011;60383;46.626;18.866;2023-10-19T00:38:21;15.00;;;8.75;;
58071;SDS011;60383;46.626;18.866;2023-10-19T00:41:03;12.85;;;8.65;;
58071;SDS011;60383;46.626;18.866;2023-10-19T00:43:35;14.35;;;9.15;;
58071;SDS011;60383;46.626;18.866;2023-10-19T00:46:11;14.38;;;9.70;;
58071;SDS011;60383;46.626;18.866;2023-10-19T00:49:05;17.02;;;9.27;;
58071;SDS011;60383;46.626;18.866;2023-10-19T00:51:35;13.95;;;9.15;;
58071;SDS011;60383;46.626;18.866;2023-10-19T00:54:14;14.13;;;10.13;;
58071;SDS011;60383;46.626;18.866;2023-10-19T00:56:47;15.95;;;9.88;;
58071;SDS011;60383;46.626;18.866;2023-10-19T00:59:21;15.88;;;9.98;;
58071;SDS011;60383;46.626;18.866;2023-10-19T01:01:54;18.00;;;10.63;;
58071;SDS011;60383;46.626;18.866;2023-10-19T01:04:29;19.02;;;11.23;;
58071;SDS011;60383;46.626;18.866;2023-10-19T01:06:59;17.17;;;11.20;;
58071;SDS011;60383;46.626;18.866;2023-10-19T01:09:37;16.23;;;10.35;;
58071;SDS011;60383;46.626;18.866;2023-10-19T01:12:04;16.45;;;11.02;;
58071;SDS011;60383;46.626;18.866;2023-10-19T01:17:38;18.42;;;11.20;;
58071;SDS011;60383;46.626;18.866;2023-10-19T01:20:15;17.90;;;11.30;;
58071;SDS011;60383;46.626;18.866;2023-10-19T01:25:32;20.27;;;12.13;;
58071;SDS011;60383;46.626;18.866;2023-10-19T01:28:16;21.30;;;13.13;;
58071;SDS011;60383;46.626;18.866;2023-10-19T01:30:46;19.25;;;12.55;;
58071;SDS011;60383;46.626;18.866;2023-10-19T01:33:16;19.67;;;12.23;;
58071;SDS011;60383;46.626;18.866;2023-10-19T01:35:45;21.98;;;13.77;;
58071;SDS011;60383;46.626;18.866;2023-10-19T01:38:29;21.80;;;13.15;;
58071;SDS011;60383;46.626;18.866;2023-10-19T01:41:05;19.38;;;13.70;;
58071;SDS011;60383;46.626;18.866;2023-10-19T01:43:44;21.00;;;13.23;;
58071;SDS011;60383;46.626;18.866;2023-10-19T01:46:12;21.40;;;13.45;;
58071;SDS011;60383;46.626;18.866;2023-10-19T01:48:42;20.45;;;14.25;;
58071;SDS011;60383;46.626;18.866;2023-10-19T01:51:09;21.27;;;13.32;;
58071;SDS011;60383;46.626;18.866;2023-10-19T01:53:36;20.55;;;13.48;;
58071;SDS011;60383;46.626;18.866;2023-10-19T01:56:12;19.92;;;13.15;;
58071;SDS011;60383;46.626;18.866;2023-10-19T01:58:40;20.02;;;14.00;;
58071;SDS011;60383;46.626;18.866;2023-10-19T02:01:06;21.88;;;12.95;;
58071;SDS011;60383;46.626;18.866;2023-10-19T02:03:54;20.15;;;12.82;;
58071;SDS011;60383;46.626;18.866;2023-10-19T02:06:23;22.58;;;13.30;;
58071;SDS011;60383;46.626;18.866;2023-10-19T02:08:58;19.70;;;12.60;;
58071;SDS011;60383;46.626;18.866;2023-10-19T02:14:03;20.42;;;12.57;;
58071;SDS011;60383;46.626;18.866;2023-10-19T02:16:38;21.98;;;14.15;;
58071;SDS011;60383;46.626;18.866;2023-10-19T02:19:04;18.45;;;13.30;;
58071;SDS011;60383;46.626;18.866;2023-10-19T02:21:29;21.08;;;13.77;;
58071;SDS011;60383;46.626;18.866;2023-10-19T02:23:57;21.15;;;14.15;;
58071;SDS011;60383;46.626;18.866;2023-10-19T02:26:23;22.42;;;15.45;;
58071;SDS011;60383;46.626;18.866;2023-10-19T02:28:52;21.55;;;14.30;;
58071;SDS011;60383;46.626;18.866;2023-10-19T02:31:19;27.02;;;15.95;;
58071;SDS011;60383;46.626;18.866;2023-10-19T02:33:50;25.55;;;16.05;;
58071;SDS011;60383;46.626;18.866;2023-10-19T02:36:25;25.50;;;15.43;;
58071;SDS011;60383;46.626;18.866;2023-10-19T02:38:59;24.67;;;15.25;;
58071;SDS011;60383;46.626;18.866;2023-10-19T02:41:32;23.35;;;14.70;;
58071;SDS011;60383;46.626;18.866;2023-10-19T02:44:15;25.25;;;16.05;;
58071;SDS011;60383;46.626;18.866;2023-10-19T02:46:41;24.08;;;15.30;;
58071;SDS011;60383;46.626;18.866;2023-10-19T02:49:07;26.90;;;15.52;;
58071;SDS011;60383;46.626;18.866;2023-10-19T02:51:40;24.30;;;15.27;;
58071;SDS011;60383;46.626;18.866;2023-10-19T02:54:09;28.33;;;16.08;;
58071;SDS011;60383;46.626;18.866;2023-10-19T02:56:41;23.23;;;15.48;;
58071;SDS011;60383;46.626;18.866;2023-10-19T02:59:09;27.90;;;16.27;;
58071;SDS011;60383;46.626;18.866;2023-10-19T03:01:34;24.40;;;16.35;;
58071;SDS011;60383;46.626;18.866;2023-10-19T03:04:00;27.13;;;15.88;;
58071;SDS011;60383;46.626;18.866;2023-10-19T03:06:30;25.63;;;16.95;;
58071;SDS011;60383;46.626;18.866;2023-10-19T03:08:57;23.95;;;15.68;;
58071;SDS011;60383;46.626;18.866;2023-10-19T03:11:29;27.73;;;15.98;;
58071;SDS011;60383;46.626;18.866;2023-10-19T03:13:54;24.02;;;15.77;;
58071;SDS011;60383;46.626;18.866;2023-10-19T03:16:22;25.52;;;16.40;;
58071;SDS011;60383;46.626;18.866;2023-10-19T03:18:48;31.58;;;17.10;;
58071;SDS011;60383;46.626;18.866;2023-10-19T03:21:16;27.65;;;17.17;;
58071;SDS011;60383;46.626;18.866;2023-10-19T03:23:41;23.35;;;15.63;;
58071;SDS011;60383;46.626;18.866;2023-10-19T03:26:07;24.58;;;16.30;;
58071;SDS011;60383;46.626;18.866;2023-10-19T03:29:05;27.33;;;15.90;;
58071;SDS011;60383;46.626;18.866;2023-10-19T03:31:38;24.40;;;16.38;;
58071;SDS011;60383;46.626;18.866;2023-10-19T03:34:10;24.50;;;15.93;;
58071;SDS011;60383;46.626;18.866;2023-10-19T03:36:42;24.05;;;16.42;;
58071;SDS011;60383;46.626;18.866;2023-10-19T03:39:07;27.77;;;16.25;;
58071;SDS011;60383;46.626;18.866;2023-10-19T03:41:40;26.55;;;16.42;;
58071;SDS011;60383;46.626;18.866;2023-10-19T03:44:10;27.27;;;17.17;;
58071;SDS011;60383;46.626;18.866;2023-10-19T03:46:49;27.98;;;15.70;;
58071;SDS011;60383;46.626;18.866;2023-10-19T03:49:20;25.92;;;16.85;;
58071;SDS011;60383;46.626;18.866;2023-10-19T03:51:46;28.05;;;17.05;;
58071;SDS011;60383;46.626;18.866;2023-10-19T03:54:31;24.67;;;15.50;;
58071;SDS011;60383;46.626;18.866;2023-10-19T03:56:58;23.58;;;15.55;;
58071;SDS011;60383;46.626;18.866;2023-10-19T03:59:31;24.63;;;16.17;;
58071;SDS011;60383;46.626;18.866;2023-10-19T04:01:59;23.80;;;14.63;;
58071;SDS011;60383;46.626;18.866;2023-10-19T04:04:25;25.13;;;16.15;;
58071;SDS011;60383;46.626;18.866;2023-10-19T04:06:54;25.48;;;15.27;;
58071;SDS011;60383;46.626;18.866;2023-10-19T04:09:23;22.77;;;14.45;;
58071;SDS011;60383;46.626;18.866;2023-10-19T04:11:54;24.08;;;14.80;;
58071;SDS011;60383;46.626;18.866;2023-10-19T04:14:23;20.45;;;14.15;;
58071;SDS011;60383;46.626;18.866;2023-10-19T04:16:48;18.35;;;11.02;;
58071;SDS011;60383;46.626;18.866;2023-10-19T04:19:14;23.42;;;14.30;;
58071;SDS011;60383;46.626;18.866;2023-10-19T04:21:40;20.65;;;13.52;;
58071;SDS011;60383;46.626;18.866;2023-10-19T04:26:37;20.60;;;14.25;;
58071;SDS011;60383;46.626;18.866;2023-10-19T04:29:06;19.95;;;12.85;;
58071;SDS011;60383;46.626;18.866;2023-10-19T04:34:17;22.15;;;12.95;;
58071;SDS011;60383;46.626;18.866;2023-10-19T04:36:46;25.35;;;14.38;;
58071;SDS011;60383;46.626;18.866;2023-10-19T04:39:14;23.35;;;14.35;;
58071;SDS011;60383;46.626;18.866;2023-10-19T04:41:40;23.60;;;14.65;;
58071;SDS011;60383;46.626;18.866;2023-10-19T04:44:06;20.45;;;13.52;;
58071;SDS011;60383;46.626;18.866;2023-10-19T04:46:33;21.70;;;13.55;;
58071;SDS011;60383;46.626;18.866;2023-10-19T04:48:59;19.35;;;13.75;;
58071;SDS011;60383;46.626;18.866;2023-10-19T04:51:25;22.75;;;14.40;;
58071;SDS011;60383;46.626;18.866;2023-10-19T04:53:51;21.17;;;12.65;;
58071;SDS011;60383;46.626;18.866;2023-10-19T04:56:17;22.40;;;13.55;;
58071;SDS011;60383;46.626;18.866;2023-10-19T04:58:42;21.95;;;13.07;;
58071;SDS011;60383;46.626;18.866;2023-10-19T05:01:08;20.98;;;14.15;;
58071;SDS011;60383;46.626;18.866;2023-10-19T05:03:36;22.85;;;14.05;;
58071;SDS011;60383;46.626;18.866;2023-10-19T05:06:02;18.55;;;12.77;;
58071;SDS011;60383;46.626;18.866;2023-10-19T05:08:28;23.02;;;12.93;;
58071;SDS011;60383;46.626;18.866;2023-10-19T05:10:54;21.17;;;13.50;;
58071;SDS011;60383;46.626;18.866;2023-10-19T05:13:23;20.38;;;12.73;;
58071;SDS011;60383;46.626;18.866;2023-10-19T05:15:50;19.42;;;13.10;;
58071;SDS011;60383;46.626;18.866;2023-10-19T05:18:18;20.20;;;13.20;;
58071;SDS011;60383;46.626;18.866;2023-10-19T05:20:43;22.00;;;13.85;;
58071;SDS011;60383;46.626;18.866;2023-10-19T05:23:09;19.30;;;13.20;;
58071;SDS011;60383;46.626;18.866;2023-10-19T05:25:35;22.23;;;14.30;;
58071;SDS011;60383;46.626;18.866;2023-10-19T05:28:03;20.15;;;12.43;;
58071;SDS011;60383;46.626;18.866;2023-10-19T05:30:29;11.85;;;8.55;;
58071;SDS011;60383;46.626;18.866;2023-10-19T05:32:56;18.55;;;12.52;;
58071;SDS011;60383;46.626;18.866;2023-10-19T05:35:22;18.38;;;12.68;;
58071;SDS011;60383;46.626;18.866;2023-10-19T05:37:51;22.92;;;13.05;;
58071;SDS011;60383;46.626;18.866;2023-10-19T05:40:17;20.48;;;11.77;;
58071;SDS011;60383;46.626;18.866;2023-10-19T05:42:44;20.80;;;13.15;;
58071;SDS011;60383;46.626;18.866;2023-10-19T05:45:13;19.02;;;12.65;;
58071;SDS011;60383;46.626;18.866;2023-10-19T05:47:38;17.90;;;11.38;;
58071;SDS011;60383;46.626;18.866;2023-10-19T05:50:04;21.10;;;13.55;;
58071;SDS011;60383;46.626;18.866;2023-10-19T05:52:30;19.10;;;11.32;;
58071;SDS011;60383;46.626;18.866;2023-10-19T05:54:55;15.63;;;11.18;;
58071;SDS011;60383;46.626;18.866;2023-10-19T05:57:22;15.50;;;10.98;;
58071;SDS011;60383;46.626;18.866;2023-10-19T05:59:49;14.25;;;9.70;;
58071;SDS011;60383;46.626;18.866;2023-10-19T06:02:14;18.20;;;12.15;;
58071;SDS011;60383;46.626;18.866;2023-10-19T06:04:40;15.27;;;10.00;;
58071;SDS011;60383;46.626;18.866;2023-10-19T06:07:06;18.75;;;11.77;;
58071;SDS011;60383;46.626;18.866;2023-10-19T06:09:31;17.15;;;11.13;;
58071;SDS011;60383;46.626;18.866;2023-10-19T06:11:57;17.35;;;11.00;;
58071;SDS011;60383;46.626;18.866;2023-10-19T06:14:23;15.65;;;10.52;;
58071;SDS011;60383;46.626;18.866;2023-10-19T06:16:48;15.02;;;9.60;;
58071;SDS011;60383;46.626;18.866;2023-10-19T06:19:14;13.43;;;9.45;;
58071;SDS011;60383;46.626;18.866;2023-10-19T06:21:41;19.40;;;11.82;;
58071;SDS011;60383;46.626;18.866;2023-10-19T06:24:06;13.23;;;9.38;;
58071;SDS011;60383;46.626;18.866;2023-10-19T06:26:32;15.05;;;10.77;;
58071;SDS011;60383;46.626;18.866;2023-10-19T06:28:58;17.38;;;10.85;;
58071;SDS011;60383;46.626;18.866;2023-10-19T06:31:24;18.98;;;10.93;;
58071;SDS011;60383;46.626;18.866;2023-10-19T06:33:51;19.70;;;11.43;;
58071;SDS011;60383;46.626;18.866;2023-10-19T06:36:17;16.50;;;10.98;;
58071;SDS011;60383;46.626;18.866;2023-10-19T06:38:44;18.23;;;12.23;;
58071;SDS011;60383;46.626;18.866;2023-10-19T06:41:13;21.10;;;12.43;;
58071;SDS011;60383;46.626;18.866;2023-10-19T06:43:39;18.75;;;11.65;;
58071;SDS011;60383;46.626;18.866;2023-10-19T06:46:05;15.30;;;10.18;;
58071;SDS011;60383;46.626;18.866;2023-10-19T06:48:31;17.17;;;12.05;;
58071;SDS011;60383;46.626;18.866;2023-10-19T06:50:58;17.88;;;11.35;;
58071;SDS011;60383;46.626;18.866;2023-10-19T06:53:25;18.00;;;10.02;;
58071;SDS011;60383;46.626;18.866;2023-10-19T06:55:50;14.93;;;9.88;;
58071;SDS011;60383;46.626;18.866;2023-10-19T06:58:16;16.10;;;10.82;;
58071;SDS011;60383;46.626;18.866;2023-10-19T07:00:45;19.17;;;11.73;;
58071;SDS011;60383;46.626;18.866;2023-10-19T07:03:10;19.40;;;12.13;;
58071;SDS011;60383;46.626;18.866;2023-10-19T07:05:37;19.35;;;13.05;;
58071;SDS011;60383;46.626;18.866;2023-10-19T07:08:03;15.43;;;9.35;;
58071;SDS011;60383;46.626;18.866;2023-10-19T07:10:32;16.08;;;11.55;;
58071;SDS011;60383;46.626;18.866;2023-10-19T07:12:59;19.55;;;12.15;;
58071;SDS011;60383;46.626;18.866;2023-10-19T07:15:24;17.15;;;12.27;;
58071;SDS011;60383;46.626;18.866;2023-10-19T07:17:52;17.75;;;11.20;;
58071;SDS011;60383;46.626;18.866;2023-10-19T07:20:19;17.23;;;12.10;;
58071;SDS011;60383;46.626;18.866;2023-10-19T07:22:51;19.80;;;11.90;;
58071;SDS011;60383;46.626;18.866;2023-10-19T07:25:17;17.05;;;11.77;;
58071;SDS011;60383;46.626;18.866;2023-10-19T07:27:46;17.73;;;12.30;;
58071;SDS011;60383;46.626;18.866;2023-10-19T07:30:21;16.42;;;11.23;;
58071;SDS011;60383;46.626;18.866;2023-10-19T07:32:51;17.80;;;11.48;;
58071;SDS011;60383;46.626;18.866;2023-10-19T07:35:20;15.80;;;11.80;;
58071;SDS011;60383;46.626;18.866;2023-10-19T07:37:47;15.73;;;11.40;;
58071;SDS011;60383;46.626;18.866;2023-10-19T07:40:15;15.98;;;10.30;;
58071;SDS011;60383;46.626;18.866;2023-10-19T07:42:40;17.42;;;10.63;;
58071;SDS011;60383;46.626;18.866;2023-10-19T07:45:07;14.65;;;10.63;;
58071;SDS011;60383;46.626;18.866;2023-10-19T07:47:37;15.60;;;10.15;;
58071;SDS011;60383;46.626;18.866;2023-10-19T07:50:06;15.32;;;11.07;;
58071;SDS011;60383;46.626;18.866;2023-10-19T07:52:41;15.45;;;10.60;;
58071;SDS011;60383;46.626;18.866;2023-10-19T07:55:12;14.25;;;10.60;;
58071;SDS011;60383;46.626;18.866;2023-10-19T07:57:38;15.45;;;10.88;;
58071;SDS011;60383;46.626;18.866;2023-10-19T08:00:06;11.25;;;7.53;;
58071;SDS011;60383;46.626;18.866;2023-10-19T08:02:33;11.27;;;8.88;;
58071;SDS011;60383;46.626;18.866;2023-10-19T08:05:00;15.75;;;11.15;;
58071;SDS011;60383;46.626;18.866;2023-10-19T08:07:27;12.38;;;8.77;;
58071;SDS011;60383;46.626;18.866;2023-10-19T08:09:53;14.48;;;9.93;;
58071;SDS011;60383;46.626;18.866;2023-10-19T08:12:19;16.35;;;9.73;;
58071;SDS011;60383;46.626;18.866;2023-10-19T08:14:47;15.65;;;8.82;;
58071;SDS011;60383;46.626;18.866;2023-10-19T08:17:13;12.70;;;8.77;;
58071;SDS011;60383;46.626;18.866;2023-10-19T08:19:39;12.50;;;8.48;;
58071;SDS011;60383;46.626;18.866;2023-10-19T08:22:06;10.65;;;6.47;;
58071;SDS011;60383;46.626;18.866;2023-10-19T08:24:32;13.23;;;8.15;;
58071;SDS011;60383;46.626;18.866;2023-10-19T08:27:00;12.45;;;8.45;;
58071;SDS011;60383;46.626;18.866;2023-10-19T08:29:26;11.13;;;7.95;;
58071;SDS011;60383;46.626;18.866;2023-10-19T08:31:52;13.52;;;9.48;;
58071;SDS011;60383;46.626;18.866;2023-10-19T08:34:17;11.55;;;8.20;;
58071;SDS011;60383;46.626;18.866;2023-10-19T08:36:44;11.60;;;7.95;;
58071;SDS011;60383;46.626;18.866;2023-10-19T08:39:10;13.45;;;8.68;;
58071;SDS011;60383;46.626;18.866;2023-10-19T08:41:39;13.10;;;8.40;;
58071;SDS011;60383;46.626;18.866;2023-10-19T08:44:06;11.63;;;7.97;;
58071;SDS011;60383;46.626;18.866;2023-10-19T08:46:44;13.77;;;9.73;;
58071;SDS011;60383;46.626;18.866;2023-10-19T08:49:11;11.55;;;7.50;;
58071;SDS011;60383;46.626;18.866;2023-10-19T08:51:38;11.25;;;7.65;;
58071;SDS011;60383;46.626;18.866;2023-10-19T08:54:04;11.48;;;8.32;;
58071;SDS011;60383;46.626;18.866;2023-10-19T08:56:31;9.73;;;7.45;;
58071;SDS011;60383;46.626;18.866;2023-10-19T08:58:59;8.07;;;6.15;;
58071;SDS011;60383;46.626;18.866;2023-10-19T09:01:26;10.25;;;7.10;;
58071;SDS011;60383;46.626;18.866;2023-10-19T09:03:53;8.65;;;6.25;;
58071;SDS011;60383;46.626;18.866;2023-10-19T09:06:20;12.07;;;7.38;;
58071;SDS011;60383;46.626;18.866;2023-10-19T09:08:46;10.45;;;6.95;;
58071;SDS011;60383;46.626;18.866;2023-10-19T09:11:13;10.25;;;6.97;;
58071;SDS011;60383;46.626;18.866;2023-10-19T09:13:45;8.45;;;6.75;;
58071;SDS011;60383;46.626;18.866;2023-10-19T09:16:15;11.48;;;7.03;;
58071;SDS011;60383;46.626;18.866;2023-10-19T09:18:42;10.52;;;7.05;;
58071;SDS011;60383;46.626;18.866;2023-10-19T09:21:08;8.40;;;5.97;;
58071;SDS011;60383;46.626;18.866;2023-10-19T09:23:37;10.60;;;7.32;;
58071;SDS011;60383;46.626;18.866;2023-10-19T09:26:03;8.18;;;6.40;;
58071;SDS011;60383;46.626;18.866;2023-10-19T09:28:30;9.45;;;6.88;;
58071;SDS011;60383;46.626;18.866;2023-10-19T09:31:02;11.90;;;7.07;;
58071;SDS011;60383;46.626;18.866;2023-10-19T09:33:28;7.80;;;5.05;;
58071;SDS011;60383;46.626;18.866;2023-10-19T09:35:55;10.05;;;6.93;;
58071;SDS011;60383;46.626;18.866;2023-10-19T09:38:26;9.98;;;6.28;;
58071;SDS011;60383;46.626;18.866;2023-10-19T09:40:52;8.20;;;6.00;;
58071;SDS011;60383;46.626;18.866;2023-10-19T09:43:37;7.53;;;5.35;;
58071;SDS011;60383;46.626;18.866;2023-10-19T09:46:06;8.20;;;5.10;;
58071;SDS011;60383;46.626;18.866;2023-10-19T09:48:42;9.90;;;5.28;;
58071;SDS011;60383;46.626;18.866;2023-10-19T09:51:12;7.25;;;4.50;;
58071;SDS011;60383;46.626;18.866;2023-10-19T09:53:38;9.70;;;6.93;;
58071;SDS011;60383;46.626;18.866;2023-10-19T09:56:08;9.68;;;4.90;;
58071;SDS011;60383;46.626;18.866;2023-10-19T09:58:41;8.00;;;5.65;;
58071;SDS011;60383;46.626;18.866;2023-10-19T10:01:18;7.07;;;4.30;;
58071;SDS011;60383;46.626;18.866;2023-10-19T10:03:47;5.75;;;4.47;;
58071;SDS011;60383;46.626;18.866;2023-10-19T10:06:13;7.78;;;5.88;;
58071;SDS011;60383;46.626;18.866;2023-10-19T10:08:44;8.93;;;5.95;;
58071;SDS011;60383;46.626;18.866;2023-10-19T10:11:43;6.88;;;4.93;;
58071;SDS011;60383;46.626;18.866;2023-10-19T10:14:02;7.43;;;5.35;;
58071;SDS011;60383;46.626;18.866;2023-10-19T10:16:46;5.30;;;4.32;;
58071;SDS011;60383;46.626;18.866;2023-10-19T10:19:13;9.93;;;6.50;;
58071;SDS011;60383;46.626;18.866;2023-10-19T10:22:03;11.10;;;6.10;;
58071;SDS011;60383;46.626;18.866;2023-10-19T10:24:39;7.90;;;5.45;;
58071;SDS011;60383;46.626;18.866;2023-10-19T10:27:07;7.85;;;5.05;;
58071;SDS011;60383;46.626;18.866;2023-10-19T10:29:34;7.35;;;5.20;;
58071;SDS011;60383;46.626;18.866;2023-10-19T10:32:00;7.20;;;4.90;;
58071;SDS011;60383;46.626;18.866;2023-10-19T10:37:07;7.18;;;5.30;;
58071;SDS011;60383;46.626;18.866;2023-10-19T10:39:35;7.00;;;5.32;;
58071;SDS011;60383;46.626;18.866;2023-10-19T10:42:04;6.82;;;5.32;;
58071;SDS011;60383;46.626;18.866;2023-10-19T10:44:41;6.65;;;4.85;;
58071;SDS011;60383;46.626;18.866;2023-10-19T10:47:08;7.70;;;4.93;;
58071;SDS011;60383;46.626;18.866;2023-10-19T10:50:19;7.47;;;5.00;;
58071;SDS011;60383;46.626;18.866;2023-10-19T10:52:27;6.47;;;5.00;;
58071;SDS011;60383;46.626;18.866;2023-10-19T10:57:20;7.60;;;4.43;;
58071;SDS011;60383;46.626;18.866;2023-10-19T10:59:45;6.15;;;4.32;;
58071;SDS011;60383;46.626;18.866;2023-10-19T11:02:18;6.22;;;4.10;;
58071;SDS011;60383;46.626;18.866;2023-10-19T11:04:44;6.53;;;4.30;;
58071;SDS011;60383;46.626;18.866;2023-10-19T11:07:17;5.60;;;4.30;;
58071;SDS011;60383;46.626;18.866;2023-10-19T11:09:45;7.63;;;4.35;;
58071;SDS011;60383;46.626;18.866;2023-10-19T11:12:11;5.50;;;3.92;;
58071;SDS011;60383;46.626;18.866;2023-10-19T11:14:50;7.88;;;4.15;;
58071;SDS011;60383;46.626;18.866;2023-10-19T11:19:43;6.53;;;4.10;;
58071;SDS011;60383;46.626;18.866;2023-10-19T11:22:09;6.63;;;4.63;;
58071;SDS011;60383;46.626;18.866;2023-10-19T11:24:35;5.22;;;3.42;;
58071;SDS011;60383;46.626;18.866;2023-10-19T11:27:05;6.70;;;3.92;;
58071;SDS011;60383;46.626;18.866;2023-10-19T11:29:33;3.85;;;3.17;;
58071;SDS011;60383;46.626;18.866;2023-10-19T11:32:01;5.28;;;3.70;;
58071;SDS011;60383;46.626;18.866;2023-10-19T11:34:27;4.28;;;3.13;;
58071;SDS011;60383;46.626;18.866;2023-10-19T11:36:57;6.55;;;4.28;;
58071;SDS011;60383;46.626;18.866;2023-10-19T11:39:25;6.53;;;3.63;;
58071;SDS011;60383;46.626;18.866;2023-10-19T11:41:51;5.03;;;3.05;;
58071;SDS011;60383;46.626;18.866;2023-10-19T11:44:18;6.28;;;4.15;;
58071;SDS011;60383;46.626;18.866;2023-10-19T11:46:44;8.38;;;3.85;;
58071;SDS011;60383;46.626;18.866;2023-10-19T11:49:10;4.72;;;3.75;;
58071;SDS011;60383;46.626;18.866;2023-10-19T11:51:36;7.07;;;3.70;;
58071;SDS011;60383;46.626;18.866;2023-10-19T11:54:04;5.25;;;4.00;;
58071;SDS011;60383;46.626;18.866;2023-10-19T11:56:31;6.63;;;4.07;;
58071;SDS011;60383;46.626;18.866;2023-10-19T11:58:57;5.70;;;3.83;;
58071;SDS011;60383;46.626;18.866;2023-10-19T12:01:22;6.53;;;3.38;;
58071;SDS011;60383;46.626;18.866;2023-10-19T12:03:50;5.25;;;3.50;;
58071;SDS011;60383;46.626;18.866;2023-10-19T12:06:16;5.03;;;3.58;;
58071;SDS011;60383;46.626;18.866;2023-10-19T12:08:45;5.57;;;3.73;;
58071;SDS011;60383;46.626;18.866;2023-10-19T12:11:11;4.10;;;3.10;;
58071;SDS011;60383;46.626;18.866;2023-10-19T12:13:47;4.57;;;3.60;;
58071;SDS011;60383;46.626;18.866;2023-10-19T12:16:12;5.90;;;3.50;;
58071;SDS011;60383;46.626;18.866;2023-10-19T12:18:40;4.97;;;3.28;;
58071;SDS011;60383;46.626;18.866;2023-10-19T12:21:07;5.35;;;3.42;;
58071;SDS011;60383;46.626;18.866;2023-10-19T12:23:38;5.30;;;3.75;;
58071;SDS011;60383;46.626;18.866;2023-10-19T12:26:04;4.82;;;3.70;;
58071;SDS011;60383;46.626;18.866;2023-10-19T12:28:36;4.72;;;3.35;;
58071;SDS011;60383;46.626;18.866;2023-10-19T12:31:06;6.03;;;3.50;;
58071;SDS011;60383;46.626;18.866;2023-10-19T12:33:36;5.57;;;3.42;;
58071;SDS011;60383;46.626;18.866;2023-10-19T12:36:03;4.50;;;3.15;;
58071;SDS011;60383;46.626;18.866;2023-10-19T12:38:49;4.95;;;3.70;;
58071;SDS011;60383;46.626;18.866;2023-10-19T12:41:15;4.13;;;2.90;;
58071;SDS011;60383;46.626;18.866;2023-10-19T12:43:40;4.38;;;3.33;;
58071;SDS011;60383;46.626;18.866;2023-10-19T12:46:06;6.60;;;3.80;;
58071;SDS011;60383;46.626;18.866;2023-10-19T12:48:34;6.53;;;3.22;;
58071;SDS011;60383;46.626;18.866;2023-10-19T12:51:03;4.68;;;2.90;;
58071;SDS011;60383;46.626;18.866;2023-10-19T12:53:32;5.80;;;3.08;;
58071;SDS011;60383;46.626;18.866;2023-10-19T12:55:58;4.45;;;2.58;;
58071;SDS011;60383;46.626;18.866;2023-10-19T12:58:24;5.43;;;3.05;;
58071;SDS011;60383;46.626;18.866;2023-10-19T13:00:52;4.38;;;3.03;;
58071;SDS011;60383;46.626;18.866;2023-10-19T13:03:19;4.55;;;2.60;;
58071;SDS011;60383;46.626;18.866;2023-10-19T13:05:46;7.45;;;4.00;;
58071;SDS011;60383;46.626;18.866;2023-10-19T13:08:14;2.95;;;2.58;;
58071;SDS011;60383;46.626;18.866;2023-10-19T13:10:44;5.28;;;2.78;;
58071;SDS011;60383;46.626;18.866;2023-10-19T13:13:11;4.05;;;2.90;;
58071;SDS011;60383;46.626;18.866;2023-10-19T13:15:43;6.00;;;2.63;;
58071;SDS011;60383;46.626;18.866;2023-10-19T13:18:11;2.95;;;1.90;;
58071;SDS011;60383;46.626;18.866;2023-10-19T13:20:45;4.78;;;2.95;;
58071;SDS011;60383;46.626;18.866;2023-10-19T13:23:13;5.28;;;2.70;;
58071;SDS011;60383;46.626;18.866;2023-10-19T13:25:46;4.85;;;3.47;;
58071;SDS011;60383;46.626;18.866;2023-10-19T13:28:18;4.40;;;3.05;;
58071;SDS011;60383;46.626;18.866;2023-10-19T13:30:46;5.03;;;3.38;;
58071;SDS011;60383;46.626;18.866;2023-10-19T13:33:13;4.43;;;3.85;;
58071;SDS011;60383;46.626;18.866;2023-10-19T13:35:40;4.43;;;3.17;;
58071;SDS011;60383;46.626;18.866;2023-10-19T13:38:07;5.22;;;3.20;;
58071;SDS011;60383;46.626;18.866;2023-10-19T13:40:34;4.75;;;3.22;;
58071;SDS011;60383;46.626;18.866;2023-10-19T13:43:01;6.22;;;3.83;;
58071;SDS011;60383;46.626;18.866;2023-10-19T13:45:31;5.20;;;3.30;;
58071;SDS011;60383;46.626;18.866;2023-10-19T13:48:03;5.50;;;3.20;;
58071;SDS011;60383;46.626;18.866;2023-10-19T13:50:30;4.25;;;3.25;;
58071;SDS011;60383;46.626;18.866;2023-10-19T13:52:56;4.32;;;3.08;;
58071;SDS011;60383;46.626;18.866;2023-10-19T13:55:23;6.25;;;3.50;;
58071;SDS011;60383;46.626;18.866;2023-10-19T13:57:49;4.10;;;3.17;;
58071;SDS011;60383;46.626;18.866;2023-10-19T14:00:15;3.33;;;2.80;;
58071;SDS011;60383;46.626;18.866;2023-10-19T14:02:49;5.57;;;3.10;;
58071;SDS011;60383;46.626;18.866;2023-10-19T14:05:17;3.00;;;2.70;;
58071;SDS011;60383;46.626;18.866;2023-10-19T14:07:44;8.20;;;3.53;;
58071;SDS011;60383;46.626;18.866;2023-10-19T14:10:12;4.28;;;3.10;;
58071;SDS011;60383;46.626;18.866;2023-10-19T14:12:41;4.45;;;3.15;;
58071;SDS011;60383;46.626;18.866;2023-10-19T14:15:17;5.05;;;3.05;;
58071;SDS011;60383;46.626;18.866;2023-10-19T14:17:44;5.03;;;2.90;;
58071;SDS011;60383;46.626;18.866;2023-10-19T14:20:11;5.15;;;3.10;;
58071;SDS011;60383;46.626;18.866;2023-10-19T14:22:41;3.20;;;2.75;;
58071;SDS011;60383;46.626;18.866;2023-10-19T14:25:08;6.43;;;3.25;;
58071;SDS011;60383;46.626;18.866;2023-10-19T14:27:46;4.13;;;2.70;;
58071;SDS011;60383;46.626;18.866;2023-10-19T14:30:17;6.18;;;2.90;;
58071;SDS011;60383;46.626;18.866;2023-10-19T14:32:47;5.15;;;2.97;;
58071;SDS011;60383;46.626;18.866;2023-10-19T14:35:13;3.70;;;2.50;;
58071;SDS011;60383;46.626;18.866;2023-10-19T14:37:41;4.63;;;2.83;;
58071;SDS011;60383;46.626;18.866;2023-10-19T14:40:11;6.15;;;3.05;;
58071;SDS011;60383;46.626;18.866;2023-10-19T14:42:39;4.05;;;2.63;;
58071;SDS011;60383;46.626;18.866;2023-10-19T14:45:10;5.15;;;2.38;;
58071;SDS011;60383;46.626;18.866;2023-10-19T14:47:39;5.88;;;3.42;;
58071;SDS011;60383;46.626;18.866;2023-10-19T14:50:12;6.47;;;3.60;;
58071;SDS011;60383;46.626;18.866;2023-10-19T14:52:41;8.73;;;6.30;;